Time;durP1;ratioP1;P1;durP2;ratioP2;P2;SDS_P1;SDS_P2;PMS_P1;PMS_P2;Temp;Humidity;BMP_temperature;BMP_pressure;BME280_temperature;BME280_humidity;BME280_pressure;Samples;Min_cycle;Max_cycle;Signal;HPM_P1;HPM_P2
2022/12/25 00:01:38;;;;;;;;;;;;;;;7.88;100.00;101418.97;5086221;28;19949;-58
2022/12/25 00:04:03;;;;;;;;;;;;;;;7.89;100.00;101407.44;5088746;28;20298;-59
2022/12/25 00:06:28;;;;;;;;;;;;;;;7.90;100.00;101402.97;5087744;28;20378;-58
2022/12/25 00:08:55;;;;;;;;;;;;;;;7.91;100.00;101405.47;5079946;28;21356;-59
2022/12/25 00:11:20;;;;;;;;;;;;;;;7.93;100.00;101405.34;5086246;28;19912;-58
2022/12/25 00:13:46;;;;;;;;;;;;;;;7.93;100.00;101402.69;5092793;28;19961;-57
2022/12/25 00:16:14;;;;;;;;;;;;;;;7.95;100.00;101404.22;5086873;28;19963;-58
2022/12/25 00:18:39;;;;;;;;;;;;;;;7.96;100.00;101402.41;5085382;28;19918;-59
2022/12/25 00:21:05;;;;;;;;;;;;;;;7.97;100.00;101407.56;5081298;28;19912;-59
2022/12/25 00:23:31;;;;;;;;;;;;;;;7.99;100.00;101408.25;5089093;28;19920;-60
2022/12/25 00:25:56;;;;;;;;;;;;;;;8.00;100.00;101412.56;5078789;28;19927;-59
2022/12/25 00:28:22;;;;;;;;;;;;;;;8.01;100.00;101406.28;5088963;28;19916;-57
2022/12/25 00:30:47;;;;;;;;;;;;;;;8.03;100.00;101399.06;5086485;28;19938;-56
2022/12/25 00:33:12;;;;;;;;;;;;;;;8.07;100.00;101402.25;5073822;28;19912;-57
2022/12/25 00:35:37;;;;;;;;;;;;;;;8.06;100.00;101408.50;5097904;28;19916;-59
2022/12/25 00:38:02;;;;;;;;;;;;;;;8.05;100.00;101396.28;5082788;28;20057;-58
2022/12/25 00:40:27;;;;;;;;;;;;;;;8.05;100.00;101390.97;5086855;28;19947;-59
2022/12/25 00:42:53;;;;;;;;;;;;;;;8.05;100.00;101394.47;5080238;28;19961;-54
2022/12/25 00:45:18;;;;;;;;;;;;;;;8.05;100.00;101399.75;5082827;28;19927;-57
2022/12/25 00:47:43;;;;;;;;;;;;;;;8.05;100.00;101391.81;5077626;28;19913;-59
2022/12/25 00:50:08;;;;;;;;;;;;;;;8.06;100.00;101390.84;5085910;28;19926;-60
2022/12/25 00:52:34;;;;;;;;;;;;;;;8.07;100.00;101387.22;5087932;28;19945;-57
2022/12/25 00:54:59;;;;;;;;;;;;;;;8.09;100.00;101387.06;5083895;28;19912;-58
2022/12/25 00:57:24;;;;;;;;;;;;;;;8.12;100.00;101383.34;5082271;28;19935;-57
2022/12/25 00:59:49;;;;;;;;;;;;;;;8.13;100.00;101377.06;5083719;28;19959;-62
2022/12/25 01:02:23;;;;;;;;;;;;;;;8.15;100.00;101375.94;5078473;28;19928;-59
2022/12/25 01:04:49;;;;;;;;;;;;;;;8.19;100.00;101377.34;5082959;28;19916;-59
2022/12/25 01:07:15;;;;;;;;;;;;;;;8.22;100.00;101377.03;5088412;28;19965;-59
2022/12/25 01:12:24;;;;;;;;;;;;;;;8.25;100.00;101387.34;5083779;28;19919;-56
2022/12/25 01:14:50;;;;;;;;;;;;;;;8.27;100.00;101388.03;5090141;28;19916;-59
2022/12/25 01:17:15;;;;;;;;;;;;;;;8.29;100.00;101388.72;5084838;28;20014;-58
2022/12/25 01:19:40;;;;;;;;;;;;;;;8.30;100.00;101382.44;5080935;28;19960;-58
2022/12/25 01:22:05;;;;;;;;;;;;;;;8.30;100.00;101382.44;5088885;28;19919;-60
2022/12/25 01:24:30;;;;;;;;;;;;;;;8.31;100.00;101385.94;5077944;28;20368;-58
2022/12/25 01:26:55;;;;;;;;;;;;;;;8.33;100.00;101391.91;5078825;28;19916;-57
2022/12/25 01:29:21;;;;;;;;;;;;;;;8.31;100.00;101392.06;5093565;28;20327;-57
2022/12/25 01:31:46;;;;;;;;;;;;;;;8.32;100.00;101403.47;5087680;28;20003;-56
2022/12/25 01:34:11;;;;;;;;;;;;;;;8.31;100.00;101402.63;5088712;28;19911;-60
2022/12/25 01:36:36;;;;;;;;;;;;;;;8.32;100.00;101404.31;5095290;28;20021;-58
2022/12/25 01:39:02;;;;;;;;;;;;;;;8.33;100.00;101405.16;5092494;28;19923;-62
2022/12/25 01:41:27;;;;;;;;;;;;;;;8.33;100.00;101402.50;5088068;28;20322;-56
2022/12/25 01:43:55;;;;;;;;;;;;;;;8.34;100.00;101396.25;5084956;28;19916;-58
2022/12/25 01:46:21;;;;;;;;;;;;;;;8.35;100.00;101396.13;5091977;28;19966;-57
2022/12/25 01:48:46;;;;;;;;;;;;;;;8.35;100.00;101397.94;5089119;28;19944;-59
2022/12/25 01:51:18;;;;;;;;;;;;;;;8.35;100.00;101404.06;5089074;28;19951;-58
2022/12/25 01:53:43;;;;;;;;;;;;;;;8.35;100.00;101403.22;5087967;28;20379;-59
2022/12/25 01:56:08;;;;;;;;;;;;;;;8.37;100.00;101417.16;5081615;28;20008;-56
2022/12/25 01:58:34;;;;;;;;;;;;;;;8.38;100.00;101410.88;5087073;28;19916;-58
2022/12/25 02:00:59;;;;;;;;;;;;;;;8.39;100.00;101407.28;5084869;28;19993;-59
2022/12/25 02:03:25;;;;;;;;;;;;;;;8.39;100.00;101412.56;5082939;28;19912;-59
2022/12/25 02:05:50;;;;;;;;;;;;;;;8.40;100.00;101422.19;5079947;28;19930;-57
2022/12/25 02:08:17;;;;;;;;;;;;;;;8.39;100.00;101423.16;5087502;28;19995;-59
2022/12/25 02:10:43;;;;;;;;;;;;;;;8.39;100.00;101420.50;5089286;28;19970;-60
2022/12/25 02:13:09;;;;;;;;;;;;;;;8.40;100.00;101424.00;5090512;28;19912;-59
2022/12/25 02:15:39;;;;;;;;;;;;;;;8.40;100.00;101421.34;5089782;28;19951;-58
2022/12/25 02:18:04;;;;;;;;;;;;;;;8.40;100.00;101432.75;5087518;28;19912;-60
2022/12/25 02:20:39;;;;;;;;;;;;;;;8.40;100.00;101424.00;5085535;28;19997;-59
2022/12/25 02:23:07;;;;;;;;;;;;;;;8.41;100.00;101423.84;5090821;28;19912;-59
2022/12/25 02:25:35;;;;;;;;;;;;;;;8.42;100.00;101427.34;5083045;28;19965;-57
2022/12/25 02:28:05;;;;;;;;;;;;;;;8.41;100.00;101423.84;5085565;28;19912;-59
2022/12/25 02:30:33;;;;;;;;;;;;;;;8.44;100.00;101417.44;5089738;28;19942;-59
2022/12/25 02:35:46;;;;;;;;;;;;;;;8.44;100.00;101417.44;5105621;28;19919;-57
2022/12/25 02:38:15;;;;;;;;;;;;;;;8.45;100.00;101411.16;5084246;28;19923;-57
2022/12/25 02:40:47;;;;;;;;;;;;;;;8.45;100.00;101416.47;5085109;28;19987;-58
2022/12/25 03:08:21;;;;;;;;;;;;;;;8.35;100.00;101356.41;5079768;28;19982;-59
2022/12/25 03:13:38;;;;;;;;;;;;;;;8.32;100.00;101330.22;5081804;28;20004;-56
2022/12/25 03:18:47;;;;;;;;;;;;;;;8.29;100.00;101314.63;5087767;28;20003;-58
2022/12/25 03:26:55;;;;;;;;;;;;;;;8.21;100.00;101313.69;5089769;28;19931;-58
2022/12/25 03:32:32;;;;;;;;;;;;;;;8.22;100.00;101320.66;5028427;28;20631;-59
2022/12/25 03:35:24;;;;;;;;;;;;;;;8.20;100.00;101310.22;5095787;28;19918;-56
2022/12/25 04:38:23;;;;;;;;;;;;;;;8.12;100.00;101303.97;5074841;28;19977;-58
2022/12/25 04:40:48;;;;;;;;;;;;;;;8.11;100.00;101312.88;5091153;28;19916;-59
2022/12/25 04:43:13;;;;;;;;;;;;;;;8.08;100.00;101301.59;5080147;28;19991;-57
2022/12/25 04:45:38;;;;;;;;;;;;;;;8.08;100.00;101312.16;5080176;28;20547;-58
2022/12/25 04:48:04;;;;;;;;;;;;;;;8.07;100.00;101309.66;5081472;28;20006;-59
2022/12/25 04:50:29;;;;;;;;;;;;;;;8.05;100.00;101311.63;5084103;28;20425;-56
2022/12/25 04:52:54;;;;;;;;;;;;;;;8.05;100.00;101311.63;5080508;28;19971;-59
2022/12/25 04:55:19;;;;;;;;;;;;;;;8.03;100.00;101313.59;5090220;28;19935;-58
2022/12/25 04:57:44;;;;;;;;;;;;;;;8.01;100.00;101320.81;5086009;28;20147;-59
2022/12/25 05:00:10;;;;;;;;;;;;;;;8.01;100.00;101311.09;5084509;28;19919;-59
2022/12/25 05:02:35;;;;;;;;;;;;;;;8.01;100.00;101308.44;5083486;28;19919;-59
2022/12/25 05:05:00;;;;;;;;;;;;;;;8.01;100.00;101305.78;5087368;28;19928;-58
2022/12/25 05:07:25;;;;;;;;;;;;;;;8.01;100.00;101302.31;5092521;28;19999;-57
2022/12/25 05:09:51;;;;;;;;;;;;;;;8.01;100.00;101304.97;5091726;28;19916;-59
2022/12/25 05:12:16;;;;;;;;;;;;;;;8.01;100.00;101307.59;5085953;28;19994;-58
2022/12/25 05:14:41;;;;;;;;;;;;;;;8.01;100.00;101295.22;5091978;28;19916;-60
2022/12/25 05:17:06;;;;;;;;;;;;;;;8.02;100.00;101296.88;5092513;28;19930;-56
2022/12/25 05:19:32;;;;;;;;;;;;;;;8.01;100.00;101284.63;5091163;28;19919;-58
2022/12/25 05:21:57;;;;;;;;;;;;;;;8.01;100.00;101284.63;5100330;28;19911;-59
2022/12/25 05:24:24;;;;;;;;;;;;;;;8.01;100.00;101299.66;5074421;28;19942;-56
2022/12/25 05:26:49;;;;;;;;;;;;;;;8.00;100.00;101284.78;5087508;28;19916;-59
2022/12/25 05:29:15;;;;;;;;;;;;;;;8.00;100.00;101277.69;5085101;28;20394;-56
2022/12/25 05:31:40;;;;;;;;;;;;;;;8.00;100.00;101268.91;5088109;28;19926;-57
2022/12/25 05:34:05;;;;;;;;;;;;;;;8.00;100.00;101269.75;5082248;28;19952;-59
2022/12/25 05:36:30;;;;;;;;;;;;;;;8.00;100.00;101255.69;5097882;28;20402;-59
2022/12/25 05:38:55;;;;;;;;;;;;;;;7.99;100.00;101254.00;5091236;28;19916;-59
2022/12/25 05:41:20;;;;;;;;;;;;;;;7.98;100.00;101252.34;5084366;28;20500;-58
2022/12/25 05:43:46;;;;;;;;;;;;;;;7.96;100.00;101260.44;5089841;28;19916;-60
2022/12/25 05:46:11;;;;;;;;;;;;;;;7.96;100.00;101257.78;5083377;28;20314;-57
2022/12/25 05:48:37;;;;;;;;;;;;;;;7.96;100.00;101264.88;5087085;28;19916;-57
2022/12/25 05:51:03;;;;;;;;;;;;;;;7.98;100.00;101265.56;5085503;28;19911;-60
2022/12/25 05:53:28;;;;;;;;;;;;;;;8.02;100.00;101266.94;5084377;28;20003;-57
2022/12/25 05:55:53;;;;;;;;;;;;;;;8.04;100.00;101270.28;5091233;28;19995;-59
2022/12/25 05:58:18;;;;;;;;;;;;;;;8.05;100.00;101269.31;5091867;28;20344;-58
2022/12/25 06:00:44;;;;;;;;;;;;;;;8.07;100.00;101262.91;5081832;28;19920;-58
2022/12/25 06:03:09;;;;;;;;;;;;;;;8.12;100.00;101265.13;5086551;28;19912;-59
2022/12/25 06:05:36;;;;;;;;;;;;;;;8.14;100.00;101243.81;5089154;28;19923;-58
2022/12/25 06:08:01;;;;;;;;;;;;;;;8.15;100.00;101233.09;5090535;28;19927;-59
2022/12/25 06:10:26;;;;;;;;;;;;;;;8.18;100.00;101238.09;5091033;28;19912;-59
2022/12/25 06:12:53;;;;;;;;;;;;;;;8.20;100.00;101241.44;5083310;28;19966;-57
2022/12/25 06:15:18;;;;;;;;;;;;;;;8.21;100.00;101243.09;5091597;28;19962;-56
2022/12/25 06:17:43;;;;;;;;;;;;;;;8.23;100.00;101251.72;5080047;28;19948;-58
2022/12/25 06:20:08;;;;;;;;;;;;;;;8.25;100.00;101248.91;5090337;28;19912;-59
2022/12/25 06:22:34;;;;;;;;;;;;;;;8.28;100.00;101246.81;5089810;28;19934;-59
2022/12/25 06:24:59;;;;;;;;;;;;;;;8.31;100.00;101233.28;5084653;28;20551;-59
2022/12/25 06:27:24;;;;;;;;;;;;;;;8.32;100.00;101227.00;5087298;28;20405;-57
2022/12/25 06:29:49;;;;;;;;;;;;;;;8.34;100.00;101217.16;5086045;28;20061;-60
2022/12/25 06:32:15;;;;;;;;;;;;;;;8.37;100.00;101218.66;5087444;28;20006;-58
2022/12/25 06:34:40;;;;;;;;;;;;;;;8.38;100.00;101213.25;5079057;28;19916;-57
2022/12/25 06:37:05;;;;;;;;;;;;;;;8.40;100.00;101214.91;5089551;28;19912;-58
2022/12/25 06:39:30;;;;;;;;;;;;;;;8.42;100.00;101215.59;5083770;28;20412;-58
2022/12/25 06:41:56;;;;;;;;;;;;;;;8.43;100.00;101206.69;5083173;28;19912;-58
2022/12/25 06:44:21;;;;;;;;;;;;;;;8.45;100.00;101194.13;5085394;28;20460;-59
2022/12/25 06:46:46;;;;;;;;;;;;;;;8.46;100.00;101188.69;5080631;28;19918;-57
2022/12/25 06:49:11;;;;;;;;;;;;;;;8.48;100.00;101197.31;5089451;28;19928;-59
2022/12/25 06:51:36;;;;;;;;;;;;;;;8.50;100.00;101189.22;5088402;28;20064;-59
2022/12/25 06:54:02;;;;;;;;;;;;;;;8.52;100.00;101192.56;5090404;28;19916;-59
2022/12/25 06:56:28;;;;;;;;;;;;;;;8.54;100.00;101185.28;5083406;28;19912;-60
2022/12/25 06:58:54;;;;;;;;;;;;;;;8.55;100.00;101166.63;5085429;28;20377;-57
2022/12/25 07:01:32;;;;;;;;;;;;;;;8.59;100.00;101151.25;5079927;28;20437;-61
2022/12/25 07:03:59;;;;;;;;;;;;;;;8.60;100.00;101153.75;5079617;28;19926;-60
2022/12/25 07:06:25;;;;;;;;;;;;;;;8.62;100.00;101172.97;5086142;28;19926;-59
2022/12/25 07:08:50;;;;;;;;;;;;;;;8.65;100.00;101172.66;5088185;28;19912;-57
2022/12/25 07:11:15;;;;;;;;;;;;;;;8.67;100.00;101181.31;5085255;28;19916;-56
2022/12/25 07:13:40;;;;;;;;;;;;;;;8.69;100.00;101183.81;5088478;28;20447;-59
2022/12/25 07:16:06;;;;;;;;;;;;;;;8.69;100.00;101183.81;5089365;28;19912;-59
2022/12/25 07:18:32;;;;;;;;;;;;;;;8.72;100.00;101180.03;5087820;28;19966;-57
2022/12/25 07:21:00;;;;;;;;;;;;;;;8.73;100.00;101185.19;5080647;28;20359;-59
2022/12/25 07:23:25;;;;;;;;;;;;;;;8.74;100.00;101193.94;5085584;28;19912;-59
2022/12/25 07:25:58;;;;;;;;;;;;;;;8.76;100.00;101206.06;5084550;28;19923;-59
2022/12/25 07:28:24;;;;;;;;;;;;;;;8.76;100.00;101210.53;5083547;28;19958;-59
2022/12/25 07:30:49;;;;;;;;;;;;;;;8.76;100.00;101206.06;5088320;28;19916;-58
2022/12/25 07:33:15;;;;;;;;;;;;;;;8.79;100.00;101215.50;5089894;28;19916;-56
2022/12/25 07:35:40;;;;;;;;;;;;;;;8.78;100.00;101204.09;5087255;28;19916;-57
2022/12/25 07:38:05;;;;;;;;;;;;;;;8.79;100.00;101216.34;5090101;28;19912;-60
2022/12/25 07:40:30;;;;;;;;;;;;;;;8.82;100.00;101215.22;5084459;28;19920;-58
2022/12/25 07:42:55;;;;;;;;;;;;;;;8.82;100.00;101188.72;5087644;28;20398;-59
2022/12/25 07:45:21;;;;;;;;;;;;;;;8.81;100.00;101179.13;5084724;28;19920;-57
2022/12/25 07:47:46;;;;;;;;;;;;;;;8.79;100.00;101167.84;5089560;28;19912;-57
2022/12/25 07:50:11;;;;;;;;;;;;;;;8.77;100.00;101177.75;5088445;28;20551;-58
2022/12/25 07:52:36;;;;;;;;;;;;;;;8.75;100.00;101183.22;5085094;28;19916;-59
2022/12/25 07:55:01;;;;;;;;;;;;;;;8.74;100.00;101194.78;5088932;28;19916;-57
2022/12/25 07:57:27;;;;;;;;;;;;;;;8.74;100.00;101208.03;5088941;28;19912;-59
2022/12/25 07:59:52;;;;;;;;;;;;;;;8.74;100.00;101210.66;5083566;28;20337;-56
2022/12/25 08:02:17;;;;;;;;;;;;;;;8.76;100.00;101221.13;5082712;28;19942;-59
2022/12/25 08:04:42;;;;;;;;;;;;;;;8.75;100.00;101228.22;5083578;28;19960;-59
2022/12/25 08:07:07;;;;;;;;;;;;;;;8.77;100.00;101230.72;5089154;28;19918;-59
2022/12/25 08:09:33;;;;;;;;;;;;;;;8.76;100.00;101234.34;5085719;28;20327;-58
2022/12/25 08:11:59;;;;;;;;;;;;;;;8.75;100.00;101227.38;5087919;28;19944;-59
2022/12/25 08:14:24;;;;;;;;;;;;;;;8.75;100.00;101228.22;5085949;28;19924;-58
2022/12/25 08:16:49;;;;;;;;;;;;;;;8.77;100.00;101223.59;5086578;28;19919;-59
2022/12/25 08:19:14;;;;;;;;;;;;;;;8.77;100.00;101236.84;5084666;28;20047;-59
2022/12/25 08:21:39;;;;;;;;;;;;;;;8.77;100.00;101252.75;5089406;28;20341;-57
2022/12/25 08:24:05;;;;;;;;;;;;;;;8.76;100.00;101242.28;5085769;28;19920;-58
2022/12/25 08:26:30;;;;;;;;;;;;;;;8.75;100.00;101235.34;5084723;28;19920;-56
2022/12/25 08:28:55;;;;;;;;;;;;;;;8.76;100.00;101231.72;5088939;28;19919;-58
2022/12/25 08:31:27;;;;;;;;;;;;;;;8.76;100.00;101223.75;5083069;28;19912;-59
2022/12/25 08:33:54;;;;;;;;;;;;;;;8.75;100.00;101236.16;5085986;28;19916;-56
2022/12/25 08:36:19;;;;;;;;;;;;;;;8.76;100.00;101237.84;5095741;28;19920;-59
2022/12/25 08:38:45;;;;;;;;;;;;;;;8.74;100.00;101231.84;5085026;28;19990;-56
2022/12/25 08:41:11;;;;;;;;;;;;;;;8.73;100.00;101232.84;5091646;28;19948;-58
2022/12/25 08:43:36;;;;;;;;;;;;;;;8.73;100.00;101240.78;5088423;28;19912;-56
2022/12/25 08:46:01;;;;;;;;;;;;;;;8.72;100.00;101246.22;5089404;28;19920;-62
2022/12/25 08:48:27;;;;;;;;;;;;;;;8.70;100.00;101241.09;5083819;28;20467;-56
2022/12/25 08:50:52;;;;;;;;;;;;;;;8.70;100.00;101238.44;5085271;28;19919;-58
2022/12/25 08:53:18;;;;;;;;;;;;;;;8.69;100.00;101244.72;5079792;28;19958;-58
2022/12/25 08:55:44;;;;;;;;;;;;;;;8.64;100.00;101234.53;5082378;28;19990;-57
2022/12/25 08:58:09;;;;;;;;;;;;;;;8.67;100.00;101226.34;5088398;28;20345;-58
2022/12/25 09:00:34;;;;;;;;;;;;;;;8.66;100.00;101221.97;5080842;28;19958;-59
2022/12/25 09:02:59;;;;;;;;;;;;;;;8.65;100.00;101232.72;5074943;28;19919;-56
2022/12/25 09:05:24;;;;;;;;;;;;;;;8.66;100.00;101223.81;5083183;28;19916;-57
2022/12/25 09:07:50;;;;;;;;;;;;;;;8.65;100.00;101216.84;5087758;28;20284;-56
2022/12/25 09:10:15;;;;;;;;;;;;;;;8.66;100.00;101215.84;5088253;28;19994;-57
2022/12/25 09:12:40;;;;;;;;;;;;;;;8.65;100.00;101212.38;5074650;28;19973;-58
2022/12/25 09:15:05;;;;;;;;;;;;;;;8.66;100.00;101216.69;5088412;28;19916;-60
2022/12/25 09:17:31;;;;;;;;;;;;;;;8.66;100.00;101229.09;5082890;28;20457;-56
2022/12/25 09:19:56;;;;;;;;;;;;;;;8.67;100.00;101233.41;5086045;28;19912;-59
2022/12/25 09:22:21;;;;;;;;;;;;;;;8.66;100.00;101242.34;5084614;28;19961;-57
2022/12/25 09:24:46;;;;;;;;;;;;;;;8.65;100.00;101252.09;5077710;28;19916;-56
2022/12/25 09:27:11;;;;;;;;;;;;;;;8.63;100.00;101240.81;5085882;28;20046;-60
2022/12/25 09:29:37;;;;;;;;;;;;;;;8.63;100.00;101232.88;5083231;28;19968;-57
2022/12/25 09:32:03;;;;;;;;;;;;;;;8.66;100.00;101226.44;5085706;28;19912;-56
2022/12/25 09:34:28;;;;;;;;;;;;;;;8.68;100.00;101228.00;5080368;28;19912;-58
2022/12/25 09:36:53;;;;;;;;;;;;;;;8.70;100.00;101227.84;5084043;28;19978;-59
2022/12/25 09:39:18;;;;;;;;;;;;;;;8.71;100.00;101240.09;5079004;28;19923;-59
2022/12/25 09:41:56;;;;;;;;;;;;;;;8.70;100.00;101222.56;5090754;28;19915;-56
2022/12/25 09:44:24;;;;;;;;;;;;;;;8.71;100.00;101203.03;5087932;28;19916;-58
2022/12/25 09:46:52;;;;;;;;;;;;;;;8.70;100.00;101196.06;5081870;28;19928;-58
2022/12/25 09:49:25;;;;;;;;;;;;;;;8.70;100.00;101211.97;5079691;28;19916;-56
2022/12/25 09:51:56;;;;;;;;;;;;;;;8.71;100.00;101205.69;5087307;28;19985;-59
2022/12/25 09:54:27;;;;;;;;;;;;;;;8.73;100.00;101198.41;5086397;28;20002;-59
2022/12/25 09:56:52;;;;;;;;;;;;;;;8.73;100.00;101185.19;5088671;28;20307;-60
2022/12/25 09:59:24;;;;;;;;;;;;;;;8.72;100.00;101188.81;5087038;28;19927;-56
2022/12/25 10:01:58;;;;;;;;;;;;;;;8.73;100.00;101181.69;5087268;28;19912;-58
2022/12/25 10:04:23;;;;;;;;;;;;;;;8.73;100.00;101179.88;5085145;28;19916;-62
2022/12/25 10:06:51;;;;;;;;;;;;;;;8.73;100.00;101181.69;5083069;28;19913;-59
2022/12/25 10:09:27;;;;;;;;;;;;;;;8.67;100.00;101161.94;5090291;28;20568;-62
2022/12/25 10:12:11;;;;;;;;;;;;;;;8.73;100.00;101179.06;5091884;28;19912;-56
2022/12/25 10:14:55;;;;;;;;;;;;;;;8.75;100.00;101155.91;5091224;28;19923;-57
2022/12/25 10:17:39;;;;;;;;;;;;;;;8.77;100.00;101164.53;5086271;28;20336;-58
2022/12/25 10:20:23;;;;;;;;;;;;;;;8.79;100.00;101166.03;5090360;28;19961;-58
2022/12/25 10:22:51;;;;;;;;;;;;;;;8.80;100.00;101154.47;5085473;28;19913;-59
2022/12/25 10:25:18;;;;;;;;;;;;;;;8.80;100.00;101158.91;5091080;28;19924;-58
2022/12/25 10:27:48;;;;;;;;;;;;;;;8.79;100.00;101151.97;5090631;28;19912;-59
2022/12/25 10:30:17;;;;;;;;;;;;;;;8.78;100.00;101159.06;5088480;28;19912;-60
2022/12/25 10:32:43;;;;;;;;;;;;;;;8.79;100.00;101165.19;5084062;28;20308;-58
2022/12/25 10:35:12;;;;;;;;;;;;;;;8.78;100.00;101166.19;5096523;28;19912;-57
2022/12/25 10:37:39;;;;;;;;;;;;;;;8.77;100.00;101173.28;5095198;28;19919;-57
2022/12/25 10:40:18;;;;;;;;;;;;;;;8.77;100.00;101172.47;5086231;28;19944;-59
2022/12/25 10:42:45;;;;;;;;;;;;;;;8.77;100.00;101164.53;5092472;28;19926;-60
2022/12/25 10:45:10;;;;;;;;;;;;;;;8.77;100.00;101162.72;5095020;28;19926;-59
2022/12/25 10:47:37;;;;;;;;;;;;;;;8.76;100.00;101174.28;5085552;28;19916;-58
2022/12/25 10:50:22;;;;;;;;;;;;;;;8.74;100.00;101168.31;5085956;28;20391;-59
2022/12/25 10:52:58;;;;;;;;;;;;;;;8.72;100.00;101157.03;5079230;28;20007;-57
2022/12/25 10:55:23;;;;;;;;;;;;;;;8.72;100.00;101138.50;5085270;28;19934;-59
2022/12/25 10:57:48;;;;;;;;;;;;;;;8.73;100.00;101131.38;5080041;28;20380;-59
2022/12/25 11:00:20;;;;;;;;;;;;;;;8.74;100.00;101123.28;5091657;28;19912;-56
2022/12/25 11:02:46;;;;;;;;;;;;;;;8.77;100.00;101112.41;5084543;28;19918;-56
2022/12/25 11:05:28;;;;;;;;;;;;;;;8.78;100.00;101110.56;5087585;28;19931;-56
2022/12/25 11:07:54;;;;;;;;;;;;;;;8.78;100.00;101119.34;5084027;28;20005;-59
2022/12/25 11:10:31;;;;;;;;;;;;;;;8.79;100.00;101112.25;5086840;28;19934;-58
2022/12/25 11:12:57;;;;;;;;;;;;;;;8.79;100.00;101099.00;5089297;28;19912;-55
2022/12/25 11:15:31;;;;;;;;;;;;;;;8.80;100.00;101095.38;5086027;28;19969;-60
2022/12/25 11:17:56;;;;;;;;;;;;;;;8.80;100.00;101105.97;5086480;28;19920;-59
2022/12/25 11:20:21;;;;;;;;;;;;;;;8.78;100.00;101094.69;5083325;28;20310;-59
2022/12/25 11:22:47;;;;;;;;;;;;;;;8.77;100.00;101090.38;5085670;28;19935;-57
2022/12/25 11:25:13;;;;;;;;;;;;;;;8.75;100.00;101077.28;5090000;28;20320;-56
2022/12/25 11:27:39;;;;;;;;;;;;;;;8.77;100.00;101082.44;5088654;28;19912;-60
2022/12/25 11:30:04;;;;;;;;;;;;;;;8.78;100.00;101062.91;5080533;28;19926;-57
2022/12/25 11:32:42;;;;;;;;;;;;;;;8.76;100.00;101047.19;5084494;28;20346;-59
2022/12/25 11:35:17;;;;;;;;;;;;;;;8.76;100.00;101052.47;5095470;28;20310;-59
2022/12/25 11:37:44;;;;;;;;;;;;;;;8.77;100.00;101040.06;5086954;28;19927;-58
2022/12/25 11:40:22;;;;;;;;;;;;;;;8.76;100.00;101047.19;5076653;28;20002;-58
2022/12/25 11:42:50;;;;;;;;;;;;;;;8.77;100.00;101040.91;5079271;28;19912;-59
2022/12/25 11:45:18;;;;;;;;;;;;;;;8.75;100.00;101048.16;5087662;28;19916;-60
2022/12/25 11:47:45;;;;;;;;;;;;;;;8.74;100.00;101051.81;5082956;28;19920;-59
2022/12/25 11:50:22;;;;;;;;;;;;;;;8.73;100.00;101050.13;5089068;28;19912;-57
2022/12/25 11:52:48;;;;;;;;;;;;;;;8.74;100.00;101056.25;5088828;28;20958;-58
2022/12/25 11:55:36;;;;;;;;;;;;;;;8.73;100.00;101052.78;5085594;28;19912;-59
2022/12/25 11:58:05;;;;;;;;;;;;;;;8.73;100.00;101034.25;5084526;28;20704;-59
2022/12/25 12:00:32;;;;;;;;;;;;;;;8.73;100.00;101028.13;5088255;28;20294;-62
2022/12/25 12:03:05;;;;;;;;;;;;;;;8.74;100.00;101024.50;5083150;28;19919;-57
2022/12/25 12:05:37;;;;;;;;;;;;;;;8.75;100.00;101027.00;5086639;28;19969;-59
2022/12/25 12:08:03;;;;;;;;;;;;;;;8.74;100.00;101025.31;5094180;28;20022;-59
2022/12/25 12:10:32;;;;;;;;;;;;;;;8.72;100.00;101016.72;5088123;28;19916;-58
2022/12/25 12:12:57;;;;;;;;;;;;;;;8.73;100.00;101023.66;5080068;28;19913;-57
2022/12/25 12:15:28;;;;;;;;;;;;;;;8.73;100.00;101025.47;5094328;28;19916;-59
2022/12/25 12:17:53;;;;;;;;;;;;;;;8.74;100.00;101017.38;5080488;28;20519;-59
2022/12/25 12:20:32;;;;;;;;;;;;;;;8.74;100.00;101027.13;5088322;28;19919;-59
2022/12/25 12:22:58;;;;;;;;;;;;;;;8.75;100.00;101034.09;5082715;28;19970;-60
2022/12/25 12:25:24;;;;;;;;;;;;;;;8.74;100.00;101027.13;5081641;28;19916;-62
2022/12/25 12:27:56;;;;;;;;;;;;;;;8.74;100.00;101033.28;5082471;28;20338;-58
2022/12/25 12:30:24;;;;;;;;;;;;;;;8.74;100.00;101016.56;5087126;28;20280;-59
2022/12/25 12:32:51;;;;;;;;;;;;;;;8.76;100.00;101011.94;5088313;28;19912;-59
2022/12/25 12:35:21;;;;;;;;;;;;;;;8.76;100.00;100999.53;5099277;28;19918;-60
2022/12/25 12:37:52;;;;;;;;;;;;;;;8.78;100.00;100991.41;5084377;28;19919;-59
2022/12/25 12:40:23;;;;;;;;;;;;;;;8.79;100.00;100988.63;5088083;28;19919;-57
2022/12/25 12:42:49;;;;;;;;;;;;;;;8.79;100.00;100987.78;5088828;28;19926;-59
2022/12/25 12:45:19;;;;;;;;;;;;;;;8.78;100.00;100976.38;5087111;28;19923;-57
2022/12/25 12:47:48;;;;;;;;;;;;;;;8.79;100.00;100983.31;5087502;28;19912;-60
2022/12/25 12:50:28;;;;;;;;;;;;;;;8.80;100.00;100977.03;5081397;28;19982;-60
2022/12/25 12:52:53;;;;;;;;;;;;;;;8.80;100.00;100984.97;5077716;28;19916;-59
2022/12/25 12:55:27;;;;;;;;;;;;;;;8.81;100.00;100978.69;5083275;28;19965;-57
2022/12/25 12:57:56;;;;;;;;;;;;;;;8.82;100.00;100974.22;5084503;28;20375;-58
2022/12/25 13:00:22;;;;;;;;;;;;;;;8.82;100.00;100980.34;5080459;28;19961;-57
2022/12/25 13:03:01;;;;;;;;;;;;;;;8.82;100.00;100972.41;5084178;28;19912;-58
2022/12/25 13:05:33;;;;;;;;;;;;;;;8.81;100.00;100960.16;5086438;28;20011;-57
2022/12/25 13:07:58;;;;;;;;;;;;;;;8.80;100.00;100955.84;5082879;28;19912;-60
2022/12/25 13:10:34;;;;;;;;;;;;;;;8.81;100.00;100954.03;5087834;28;20038;-55
2022/12/25 13:13:02;;;;;;;;;;;;;;;8.79;100.00;100956.00;5087314;28;19923;-61
2022/12/25 13:15:29;;;;;;;;;;;;;;;8.77;100.00;100955.34;5082983;28;19912;-59
2022/12/25 13:17:59;;;;;;;;;;;;;;;8.77;100.00;100958.81;5083776;28;19912;-57
2022/12/25 13:20:43;;;;;;;;;;;;;;;8.79;100.00;100956.84;5080711;28;19919;-57
2022/12/25 13:23:12;;;;;;;;;;;;;;;8.80;100.00;100950.56;5075325;28;20272;-60
2022/12/25 13:25:37;;;;;;;;;;;;;;;8.83;100.00;100944.94;5079978;28;20007;-59
2022/12/25 13:28:03;;;;;;;;;;;;;;;8.85;100.00;100942.13;5084475;28;20043;-58
2022/12/25 13:30:29;;;;;;;;;;;;;;;8.87;100.00;100942.81;5088426;28;20029;-59
2022/12/25 13:32:55;;;;;;;;;;;;;;;8.89;100.00;100941.66;5085233;28;19961;-57
2022/12/25 13:35:21;;;;;;;;;;;;;;;8.90;100.00;100926.59;5089272;28;20291;-58
2022/12/25 13:37:47;;;;;;;;;;;;;;;8.91;100.00;100923.78;5084411;28;19911;-58
2022/12/25 13:40:23;;;;;;;;;;;;;;;8.93;100.00;100915.69;5091283;28;20368;-59
2022/12/25 13:42:50;;;;;;;;;;;;;;;8.93;100.00;100916.53;5083785;28;19975;-59
2022/12/25 13:45:19;;;;;;;;;;;;;;;8.94;100.00;100912.06;5092393;28;20370;-57
2022/12/25 13:47:45;;;;;;;;;;;;;;;8.95;100.00;100911.91;5090860;28;19958;-60
2022/12/25 13:50:27;;;;;;;;;;;;;;;8.96;100.00;100918.03;5086261;28;20024;-61
2022/12/25 13:52:54;;;;;;;;;;;;;;;8.95;100.00;100906.59;5088612;28;19946;-60
2022/12/25 13:55:21;;;;;;;;;;;;;;;8.96;100.00;100910.94;5086245;28;20399;-58
2022/12/25 13:57:50;;;;;;;;;;;;;;;8.96;100.00;100910.06;5090145;28;19915;-56
2022/12/25 14:00:20;;;;;;;;;;;;;;;8.96;100.00;100913.59;5083886;28;19912;-57
2022/12/25 14:02:46;;;;;;;;;;;;;;;8.93;100.00;100897.97;5089770;28;20391;-60
2022/12/25 14:05:24;;;;;;;;;;;;;;;8.96;100.00;100903.00;5084670;28;19916;-57
2022/12/25 14:07:49;;;;;;;;;;;;;;;8.97;100.00;100902.00;5090369;28;19920;-58
2022/12/25 14:10:15;;;;;;;;;;;;;;;8.96;100.00;100905.63;5086716;28;19998;-57
2022/12/25 14:12:41;;;;;;;;;;;;;;;8.96;100.00;100891.53;5089976;28;20038;-58
2022/12/25 14:15:13;;;;;;;;;;;;;;;8.95;100.00;100898.66;5086817;28;19920;-60
2022/12/25 14:17:38;;;;;;;;;;;;;;;8.94;100.00;100893.50;5087633;28;19959;-58
2022/12/25 14:20:04;;;;;;;;;;;;;;;8.94;100.00;100888.22;5089359;28;19959;-60
2022/12/25 14:22:30;;;;;;;;;;;;;;;8.94;100.00;100891.69;5085892;28;20027;-59